Orbital elements of COSMOS 2251 DEB
| Launched | 15 June 1993 |
| Flight ended | – |
| Launch site | Plesetsk Missile and Space Complex, Russia |
| Owner | Commonwealth of Independent States (former USSR) |
| NORAD ID | 35793 |
| Date fetched |
Epoch osculation |
Inc. [°] |
Ecc. | RA asc node [hr] |
Arg Peri. [°] |
Mean anom [°] |
Mean motion [rev/day] |
Abs. mag |
| Date fetched |
Epoch osculation |
Inc. [°] |
Ecc. | RA asc node [hr] |
Arg Peri. [°] |
Mean anom [°] |
Mean motion [rev/day] |
Abs. mag |
| 2026 May 07 17:58 | 2026 May 04 18:43:44 | 74.0371 | 0.00065 | 9.2072 | 212.5779 | 323.9160 | 14.82761 | – |
| 2026 May 06 17:57 | 2026 May 04 18:43:44 | 74.0371 | 0.00065 | 9.2072 | 212.5779 | 323.9160 | 14.82761 | – |
| 2026 May 05 17:57 | 2026 May 04 18:43:44 | 74.0371 | 0.00065 | 9.2072 | 212.5779 | 323.9160 | 14.82761 | – |
| 2026 May 04 17:57 | 2026 Apr 30 10:35:54 | 74.0376 | 0.00066 | 9.7793 | 220.7314 | 323.9160 | 14.82761 | – |
| 2026 May 03 17:57 | 2026 Apr 30 10:35:54 | 74.0376 | 0.00066 | 9.7793 | 220.7314 | 323.9160 | 14.82761 | – |
| 2026 May 02 17:57 | 2026 Apr 30 10:35:54 | 74.0376 | 0.00066 | 9.7793 | 220.7314 | 323.9160 | 14.82761 | – |
| 2026 May 01 17:56 | 2026 Apr 30 10:35:54 | 74.0376 | 0.00066 | 9.7793 | 220.7314 | 323.9160 | 14.82761 | – |
| 2026 Apr 30 17:56 | 2026 Apr 30 10:35:54 | 74.0376 | 0.00066 | 9.7793 | 220.7314 | 323.9160 | 14.82761 | – |
| 2026 Apr 29 17:57 | 2026 Apr 23 11:47:34 | 74.0382 | 0.00066 | 10.6955 | 232.3468 | 323.9160 | 14.82761 | – |
| 2026 Apr 28 17:56 | 2026 Apr 23 11:47:34 | 74.0382 | 0.00066 | 10.6955 | 232.3468 | 323.9160 | 14.82761 | – |
| 2026 Apr 27 17:58 | 2026 Apr 23 11:47:34 | 74.0382 | 0.00066 | 10.6955 | 232.3468 | 323.9160 | 14.82761 | – |
| 2026 Apr 26 17:58 | 2026 Apr 23 11:47:34 | 74.0382 | 0.00066 | 10.6955 | 232.3468 | 323.9160 | 14.82761 | – |
| 2026 Apr 25 17:58 | 2026 Apr 23 11:47:34 | 74.0382 | 0.00066 | 10.6955 | 232.3468 | 323.9160 | 14.82761 | – |
| 2026 Apr 24 17:59 | 2026 Apr 23 11:47:34 | 74.0382 | 0.00066 | 10.6955 | 232.3468 | 323.9160 | 14.82761 | – |
| 2026 Apr 23 17:57 | 2026 Apr 18 22:10:31 | 74.0386 | 0.00066 | 11.2975 | 239.8177 | 323.9160 | 14.82761 | – |
| 2026 Apr 22 17:57 | 2026 Apr 18 22:10:31 | 74.0386 | 0.00066 | 11.2975 | 239.8177 | 323.9160 | 14.82761 | – |
| 2026 Apr 21 17:57 | 2026 Apr 18 22:10:31 | 74.0386 | 0.00066 | 11.2975 | 239.8177 | 323.9160 | 14.82761 | – |
| 2026 Apr 20 17:57 | 2026 Apr 18 22:10:31 | 74.0386 | 0.00066 | 11.2975 | 239.8177 | 323.9160 | 14.82761 | – |
| 2026 Apr 19 17:58 | 2026 Apr 18 22:10:31 | 74.0386 | 0.00066 | 11.2975 | 239.8177 | 323.9160 | 14.82761 | – |
| 2026 Apr 18 17:56 | 2026 Apr 12 11:33:39 | 74.0394 | 0.00066 | 12.1465 | 250.5177 | 323.9160 | 14.82761 | – |
| 2026 Apr 16 17:57 | 2026 Apr 12 11:33:39 | 74.0394 | 0.00066 | 12.1465 | 250.5177 | 323.9160 | 14.82761 | – |
| 2026 Apr 14 17:57 | 2026 Apr 12 11:33:39 | 74.0394 | 0.00066 | 12.1465 | 250.5177 | 323.9160 | 14.82761 | – |
| 2026 Apr 13 17:57 | 2026 Apr 12 11:33:39 | 74.0394 | 0.00066 | 12.1465 | 250.5177 | 323.9160 | 14.82761 | – |
| 2026 Apr 12 17:57 | 2026 Apr 07 23:45:38 | 74.0391 | 0.00065 | 12.7383 | 257.3783 | 323.9160 | 14.82761 | – |
| 2026 Apr 11 17:57 | 2026 Apr 07 23:45:38 | 74.0391 | 0.00065 | 12.7383 | 257.3783 | 323.9160 | 14.82761 | – |
| 2026 Apr 10 17:58 | 2026 Apr 07 23:45:38 | 74.0391 | 0.00065 | 12.7383 | 257.3783 | 323.9160 | 14.82761 | – |